Terminal Aerodrome Forecast
Issued by NWS

Home | Current Version | Previous Version | Text Only | Print | Product List | Glossary On
Versions: 1 2 3 4 5 6 7 8 9 10 11 12 13 14 15 16 17 18 19 20 21 22 23 24 25 26 27 28 29 30 31 32 33 34 35
000
FTUS45 KSLC 271359 AAA
TAFEVW
TAF AMD
KEVW 271359Z 2714/2812 VRB04KT P6SM -SHRA SCT035 BKN050
     FM271700 32011KT P6SM VCSH SCT060 BKN100
     FM280300 24007KT P6SM SCT120=

USA.gov is the U.S. government's official web portal to all federal, state and local government web resources and services.